Wetterdaten: Woche 27.04.09 - 03.05.09 (KW18)
Datum Zeit Temperatur Luftfeuchte Luftdruck Niederschlag Wind Richtung Sonnenschein Solar Taupunkt Windchill Windben
27.04.2009 00:00 12.8 C 75 % 1003.7 hPa 0.0 l/m 2.4 km/h (1 Bft) W-SW 0.00 h 0 W/m 8.4 C 12.8 C 4.1 km/h (1 Bft)
27.04.2009 01:00 12.2 C 80 % 1004.4 hPa 0.0 l/m 5.1 km/h (1 Bft) W-SW 0.00 h 0 W/m 8.7 C 12.2 C 9.4 km/h (2 Bft)
27.04.2009 02:00 11.8 C 80 % 1005.1 hPa 0.0 l/m 13.6 km/h (3 Bft) W 0.00 h 0 W/m 8.6 C 11.8 C 21.8 km/h (4 Bft)
27.04.2009 03:00 11.7 C 79 % 1005.6 hPa 0.0 l/m 8.5 km/h (2 Bft) W 0.00 h 0 W/m 8.2 C 11.7 C 13.9 km/h (3 Bft)
27.04.2009 04:00 11.4 C 80 % 1005.7 hPa 0.0 l/m 3.1 km/h (1 Bft) SW 0.00 h 0 W/m 8.1 C 11.4 C 6.5 km/h (2 Bft)
27.04.2009 05:00 11.1 C 82 % 1006.1 hPa 0.0 l/m 2.8 km/h (1 Bft) S 0.00 h 0 W/m 8.1 C 11.1 C 6.1 km/h (2 Bft)
27.04.2009 06:00 11.1 C 83 % 1006.2 hPa 0.0 l/m 1.3 km/h (1 Bft) S-SO 0.00 h 7 W/m 8.3 C 11.1 C 3.1 km/h (1 Bft)
27.04.2009 07:00 11.3 C 83 % 1006.9 hPa 0.0 l/m 1.2 km/h (1 Bft) SW 0.00 h 13 W/m 8.5 C 11.3 C 3.4 km/h (1 Bft)
27.04.2009 08:00 11.7 C 81 % 1007.0 hPa 0.0 l/m 1.7 km/h (1 Bft) W 0.00 h 42 W/m 8.5 C 11.7 C 3.4 km/h (1 Bft)
27.04.2009 09:00 11.8 C 82 % 1007.1 hPa 0.4 l/m 1.9 km/h (1 Bft) W 0.00 h 68 W/m 8.9 C 11.8 C 4.0 km/h (1 Bft)
27.04.2009 10:00 11.7 C 87 % 1006.9 hPa 0.2 l/m 0.5 km/h (0 Bft) W 0.00 h 98 W/m 9.5 C 11.7 C 1.7 km/h (1 Bft)
27.04.2009 11:00 11.9 C 88 % 1007.1 hPa 0.0 l/m 1.0 km/h (0 Bft) W 0.00 h 180 W/m 9.9 C 11.9 C 2.5 km/h (1 Bft)
27.04.2009 12:00 13.5 C 83 % 1006.4 hPa 0.0 l/m 3.0 km/h (1 Bft) W 0.20 h 353 W/m 10.5 C 13.5 C 5.5 km/h (1 Bft)
27.04.2009 13:00 14.2 C 73 % 1005.8 hPa 0.0 l/m 6.0 km/h (2 Bft) W 0.48 h 431 W/m 9.5 C 14.2 C 9.7 km/h (2 Bft)
27.04.2009 14:00 14.3 C 69 % 1005.0 hPa 0.0 l/m 7.2 km/h (2 Bft) W 0.68 h 466 W/m 8.8 C 14.3 C 11.5 km/h (2 Bft)
27.04.2009 15:00 14.7 C 66 % 1004.5 hPa 0.0 l/m 8.4 km/h (2 Bft) W-SW 0.47 h 403 W/m 8.4 C 14.7 C 13.9 km/h (3 Bft)
27.04.2009 16:00 14.2 C 65 % 1004.3 hPa 0.0 l/m 9.3 km/h (2 Bft) W 0.32 h 283 W/m 7.7 C 14.2 C 15.4 km/h (3 Bft)
27.04.2009 17:00 13.2 C 65 % 1004.0 hPa 0.0 l/m 7.7 km/h (2 Bft) W 0.00 h 123 W/m 6.7 C 13.2 C 13.0 km/h (3 Bft)
27.04.2009 18:00 12.5 C 67 % 1003.7 hPa 0.0 l/m 6.2 km/h (2 Bft) W 0.00 h 56 W/m 6.5 C 12.5 C 11.1 km/h (2 Bft)
27.04.2009 19:00 12.0 C 68 % 1003.2 hPa 0.0 l/m 4.0 km/h (1 Bft) W 0.00 h 22 W/m 6.3 C 12.0 C 7.0 km/h (2 Bft)
27.04.2009 20:00 11.6 C 70 % 1003.1 hPa 0.0 l/m 3.5 km/h (1 Bft) W 0.00 h 10 W/m 6.2 C 11.6 C 6.6 km/h (2 Bft)
27.04.2009 21:00 11.1 C 71 % 1003.1 hPa 0.0 l/m 2.0 km/h (1 Bft) W 0.00 h 0 W/m 6.1 C 11.1 C 4.7 km/h (1 Bft)
27.04.2009 22:00 11.1 C 72 % 1002.8 hPa 0.0 l/m 1.9 km/h (1 Bft) SW 0.00 h 0 W/m 6.1 C 11.1 C 4.1 km/h (1 Bft)
27.04.2009 23:00 10.9 C 72 % 1002.3 hPa 0.0 l/m 2.7 km/h (1 Bft) W-SW 0.00 h 0 W/m 6.0 C 10.9 C 5.8 km/h (2 Bft)
28.04.2009 00:00 10.8 C 70 % 1002.0 hPa 0.0 l/m 3.8 km/h (1 Bft) W 0.00 h 0 W/m 5.6 C 10.8 C 7.4 km/h (2 Bft)
28.04.2009 01:00 10.6 C 71 % 1002.0 hPa 0.0 l/m 1.9 km/h (1 Bft) W 0.00 h 0 W/m 5.5 C 10.6 C 4.4 km/h (1 Bft)
28.04.2009 02:00 10.5 C 73 % 1001.6 hPa 0.0 l/m 0.7 km/h (0 Bft) W 0.00 h 0 W/m 5.9 C 10.5 C 1.8 km/h (1 Bft)
28.04.2009 03:00 10.4 C 77 % 1001.5 hPa 0.0 l/m 1.0 km/h (0 Bft) S 0.00 h 0 W/m 6.6 C 10.4 C 3.1 km/h (1 Bft)
28.04.2009 04:00 10.2 C 83 % 1001.6 hPa 0.4 l/m 1.8 km/h (1 Bft) S 0.00 h 0 W/m 7.4 C 10.2 C 4.6 km/h (1 Bft)
28.04.2009 05:00 9.5 C 88 % 1001.7 hPa 0.2 l/m 1.4 km/h (1 Bft) S 0.00 h 0 W/m 7.6 C 9.4 C 3.7 km/h (1 Bft)
28.04.2009 06:00 9.0 C 90 % 1001.7 hPa 0.0 l/m 2.1 km/h (1 Bft) S-SO 0.00 h 6 W/m 7.5 C 9.0 C 3.9 km/h (1 Bft)
28.04.2009 07:00 8.9 C 91 % 1002.2 hPa 0.2 l/m 1.3 km/h (1 Bft) SO 0.00 h 12 W/m 7.5 C 8.9 C 3.0 km/h (1 Bft)
28.04.2009 08:00 9.1 C 92 % 1002.7 hPa 0.2 l/m 0.5 km/h (0 Bft) SO 0.00 h 52 W/m 7.8 C 9.1 C 1.8 km/h (1 Bft)
28.04.2009 09:00 9.7 C 91 % 1003.1 hPa 0.0 l/m 1.6 km/h (1 Bft) S-SO 0.00 h 144 W/m 8.3 C 9.7 C 4.0 km/h (1 Bft)
28.04.2009 10:00 10.6 C 87 % 1003.6 hPa 0.0 l/m 2.4 km/h (1 Bft) W-SW 0.00 h 170 W/m 8.6 C 10.6 C 5.5 km/h (1 Bft)
28.04.2009 11:00 9.1 C 85 % 1004.7 hPa 0.4 l/m 17.0 km/h (3 Bft) W 0.00 h 155 W/m 6.6 C 7.0 C 26.2 km/h (4 Bft)
28.04.2009 12:00 8.4 C 82 % 1005.7 hPa 0.0 l/m 14.4 km/h (3 Bft) W 0.00 h 238 W/m 5.4 C 6.0 C 22.1 km/h (4 Bft)
28.04.2009 13:00 9.3 C 77 % 1006.2 hPa 0.0 l/m 9.0 km/h (2 Bft) W 0.00 h 258 W/m 5.5 C 8.0 C 14.6 km/h (3 Bft)
28.04.2009 14:00 10.4 C 72 % 1006.1 hPa 0.0 l/m 5.0 km/h (1 Bft) W 0.00 h 264 W/m 5.6 C 10.3 C 8.7 km/h (2 Bft)
28.04.2009 15:00 11.0 C 66 % 1006.5 hPa 0.0 l/m 5.5 km/h (1 Bft) W 0.00 h 208 W/m 4.8 C 11.0 C 9.5 km/h (2 Bft)
28.04.2009 16:00 10.5 C 70 % 1006.7 hPa 0.0 l/m 4.0 km/h (1 Bft) SW 0.00 h 111 W/m 5.4 C 10.5 C 7.6 km/h (2 Bft)
28.04.2009 17:00 9.5 C 74 % 1007.1 hPa 0.0 l/m 3.6 km/h (1 Bft) S-SO 0.00 h 74 W/m 5.1 C 9.3 C 7.7 km/h (2 Bft)
28.04.2009 18:00 9.2 C 74 % 1007.3 hPa 0.0 l/m 6.5 km/h (2 Bft) S-SO 0.00 h 93 W/m 4.8 C 8.4 C 10.5 km/h (2 Bft)
28.04.2009 19:00 8.6 C 75 % 1007.4 hPa 0.0 l/m 6.5 km/h (2 Bft) S-SO 0.00 h 51 W/m 4.5 C 7.8 C 10.9 km/h (2 Bft)
28.04.2009 20:00 7.9 C 79 % 1007.5 hPa 0.0 l/m 2.9 km/h (1 Bft) O-SO 0.00 h 10 W/m 4.4 C 7.8 C 4.9 km/h (1 Bft)
28.04.2009 21:00 7.1 C 81 % 1007.7 hPa 0.0 l/m 1.3 km/h (1 Bft) O-SO 0.00 h 0 W/m 4.1 C 7.1 C 2.7 km/h (1 Bft)
28.04.2009 22:00 6.7 C 84 % 1007.8 hPa 0.0 l/m 1.6 km/h (1 Bft) O-SO 0.00 h 0 W/m 4.1 C 6.7 C 3.4 km/h (1 Bft)
28.04.2009 23:00 6.4 C 87 % 1007.9 hPa 0.0 l/m 3.7 km/h (1 Bft) SO 0.00 h 0 W/m 4.3 C 6.1 C 5.6 km/h (1 Bft)
29.04.2009 00:00 6.2 C 87 % 1007.9 hPa 0.0 l/m 0.2 km/h (0 Bft) O-SO 0.00 h 0 W/m 4.3 C 6.2 C 0.9 km/h (0 Bft)
29.04.2009 01:00 6.0 C 88 % 1007.6 hPa 0.0 l/m 0.4 km/h (0 Bft) O-SO 0.00 h 0 W/m 4.2 C 6.0 C 1.4 km/h (1 Bft)
29.04.2009 02:00 5.8 C 89 % 1007.2 hPa 0.0 l/m 0.0 km/h (0 Bft) O-SO 0.00 h 0 W/m 4.2 C 5.8 C 0.4 km/h (0 Bft)
29.04.2009 03:00 5.6 C 90 % 1007.4 hPa 0.0 l/m 1.5 km/h (1 Bft) O-SO 0.00 h 0 W/m 4.2 C 5.6 C 2.7 km/h (1 Bft)
29.04.2009 04:00 5.4 C 92 % 1007.0 hPa 0.0 l/m 0.3 km/h (0 Bft) NO 0.00 h 0 W/m 4.1 C 5.4 C 1.2 km/h (1 Bft)
29.04.2009 05:00 5.5 C 92 % 1006.9 hPa 0.0 l/m 0.1 km/h (0 Bft) O 0.00 h 0 W/m 4.4 C 5.5 C 0.7 km/h (0 Bft)
29.04.2009 06:00 5.7 C 93 % 1006.9 hPa 0.0 l/m 0.4 km/h (0 Bft) O 0.00 h 20 W/m 4.7 C 5.7 C 1.3 km/h (1 Bft)
29.04.2009 07:00 6.1 C 93 % 1007.1 hPa 0.0 l/m 0.1 km/h (0 Bft) O 0.00 h 75 W/m 5.1 C 6.1 C 0.4 km/h (0 Bft)
29.04.2009 08:00 6.9 C 93 % 1007.6 hPa 0.0 l/m 1.3 km/h (1 Bft) O 0.00 h 117 W/m 5.9 C 6.9 C 2.8 km/h (1 Bft)
29.04.2009 09:00 7.7 C 86 % 1008.1 hPa 0.0 l/m 7.7 km/h (2 Bft) W 0.00 h 104 W/m 5.5 C 6.4 C 12.8 km/h (3 Bft)
29.04.2009 10:00 8.0 C 80 % 1009.0 hPa 0.0 l/m 7.5 km/h (2 Bft) W 0.00 h 100 W/m 4.7 C 6.8 C 12.4 km/h (3 Bft)
29.04.2009 11:00 8.1 C 85 % 1009.8 hPa 0.2 l/m 6.5 km/h (2 Bft) W 0.00 h 181 W/m 5.7 C 7.1 C 10.3 km/h (2 Bft)
29.04.2009 12:00 8.4 C 87 % 1010.4 hPa 0.2 l/m 5.2 km/h (1 Bft) W-SW 0.00 h 239 W/m 6.3 C 7.8 C 8.9 km/h (2 Bft)
29.04.2009 13:00 10.2 C 84 % 1010.7 hPa 0.2 l/m 3.4 km/h (1 Bft) W-SW 0.18 h 365 W/m 7.6 C 10.2 C 6.3 km/h (2 Bft)
29.04.2009 14:00 12.2 C 69 % 1010.7 hPa 0.0 l/m 3.5 km/h (1 Bft) W-SW 0.45 h 442 W/m 6.6 C 12.2 C 6.4 km/h (2 Bft)
29.04.2009 15:00 13.1 C 60 % 1010.6 hPa 0.0 l/m 4.2 km/h (1 Bft) NW 0.78 h 563 W/m 5.6 C 13.1 C 7.7 km/h (2 Bft)
29.04.2009 16:00 14.9 C 48 % 1010.5 hPa 0.0 l/m 7.4 km/h (2 Bft) W-SW 0.63 h 591 W/m 4.0 C 14.9 C 12.9 km/h (3 Bft)
29.04.2009 17:00 13.4 C 57 % 1011.1 hPa 0.0 l/m 4.9 km/h (1 Bft) W 0.13 h 208 W/m 5.1 C 13.4 C 8.6 km/h (2 Bft)
29.04.2009 18:00 12.8 C 60 % 1011.8 hPa 0.0 l/m 4.5 km/h (1 Bft) SW 0.15 h 127 W/m 5.3 C 12.8 C 9.2 km/h (2 Bft)
29.04.2009 19:00 10.7 C 70 % 1012.7 hPa 0.0 l/m 5.0 km/h (1 Bft) W-SW 0.03 h 48 W/m 5.5 C 10.6 C 9.5 km/h (2 Bft)
29.04.2009 20:00 8.7 C 76 % 1013.8 hPa 0.0 l/m 4.9 km/h (1 Bft) S-SO 0.03 h 17 W/m 4.7 C 8.3 C 9.1 km/h (2 Bft)
29.04.2009 21:00 7.4 C 83 % 1014.6 hPa 0.0 l/m 5.5 km/h (1 Bft) S-SO 0.00 h 0 W/m 4.7 C 6.6 C 8.5 km/h (2 Bft)
29.04.2009 22:00 6.5 C 86 % 1015.3 hPa 0.0 l/m 2.9 km/h (1 Bft) S-SO 0.00 h 0 W/m 4.4 C 6.3 C 4.9 km/h (1 Bft)
29.04.2009 23:00 5.9 C 87 % 1015.9 hPa 0.0 l/m 1.7 km/h (1 Bft) S-SO 0.00 h 0 W/m 3.9 C 5.8 C 2.7 km/h (1 Bft)
30.04.2009 00:00 5.3 C 89 % 1016.4 hPa 0.0 l/m 2.9 km/h (1 Bft) O-SO 0.00 h 0 W/m 3.6 C 5.1 C 5.1 km/h (1 Bft)
30.04.2009 01:00 5.1 C 91 % 1016.4 hPa 0.0 l/m 2.5 km/h (1 Bft) O-SO 0.00 h 0 W/m 3.7 C 5.0 C 4.3 km/h (1 Bft)
30.04.2009 02:00 5.0 C 92 % 1016.2 hPa 0.0 l/m 1.0 km/h (0 Bft) O 0.00 h 0 W/m 3.8 C 5.0 C 2.5 km/h (1 Bft)
30.04.2009 03:00 4.6 C 93 % 1016.5 hPa 0.0 l/m 2.6 km/h (1 Bft) O-SO 0.00 h 0 W/m 3.6 C 4.6 C 4.0 km/h (1 Bft)
30.04.2009 04:00 4.5 C 94 % 1016.7 hPa 0.0 l/m 1.5 km/h (1 Bft) O-SO 0.00 h 0 W/m 3.6 C 4.5 C 2.7 km/h (1 Bft)
30.04.2009 05:00 4.4 C 95 % 1017.0 hPa 0.0 l/m 1.5 km/h (1 Bft) O-SO 0.00 h 0 W/m 3.7 C 4.4 C 2.9 km/h (1 Bft)
30.04.2009 06:00 4.7 C 96 % 1017.4 hPa 0.0 l/m 1.2 km/h (1 Bft) S-SO 0.00 h 16 W/m 4.1 C 4.6 C 2.6 km/h (1 Bft)
30.04.2009 07:00 5.0 C 96 % 1017.9 hPa 0.0 l/m 0.1 km/h (0 Bft) S 0.00 h 60 W/m 4.5 C 5.0 C 0.3 km/h (0 Bft)
30.04.2009 08:00 6.3 C 97 % 1018.1 hPa 0.0 l/m 0.3 km/h (0 Bft) S 0.02 h 167 W/m 5.8 C 6.3 C 1.2 km/h (1 Bft)
30.04.2009 09:00 8.9 C 90 % 1018.2 hPa 0.0 l/m 1.6 km/h (1 Bft) S 0.85 h 359 W/m 7.3 C 8.9 C 3.4 km/h (1 Bft)
30.04.2009 10:00 11.2 C 71 % 1018.0 hPa 0.0 l/m 1.1 km/h (1 Bft) S-SW 0.58 h 408 W/m 6.2 C 11.2 C 2.9 km/h (1 Bft)
30.04.2009 11:00 11.3 C 68 % 1018.1 hPa 0.0 l/m 0.5 km/h (0 Bft) O-NO 0.00 h 216 W/m 5.7 C 11.3 C 1.8 km/h (1 Bft)
30.04.2009 12:00 12.2 C 66 % 1017.8 hPa 0.0 l/m 1.8 km/h (1 Bft) W 0.00 h 350 W/m 6.0 C 12.2 C 3.5 km/h (1 Bft)
30.04.2009 13:00 13.1 C 63 % 1017.4 hPa 0.0 l/m 2.2 km/h (1 Bft) W-NW 0.40 h 451 W/m 6.2 C 13.1 C 4.2 km/h (1 Bft)
30.04.2009 14:00 13.8 C 60 % 1017.1 hPa 0.0 l/m 2.4 km/h (1 Bft) W-NW 0.00 h 361 W/m 6.1 C 13.8 C 4.4 km/h (1 Bft)
30.04.2009 15:00 14.3 C 57 % 1016.8 hPa 0.0 l/m 2.5 km/h (1 Bft) O-SO 0.63 h 445 W/m 5.8 C 14.3 C 5.0 km/h (1 Bft)
30.04.2009 16:00 14.7 C 57 % 1016.6 hPa 0.0 l/m 3.7 km/h (1 Bft) O-SO 0.00 h 306 W/m 6.3 C 14.7 C 6.4 km/h (2 Bft)
30.04.2009 17:00 14.4 C 56 % 1016.7 hPa 0.0 l/m 3.5 km/h (1 Bft) O-SO 0.00 h 166 W/m 5.7 C 14.4 C 6.0 km/h (2 Bft)
30.04.2009 18:00 13.7 C 56 % 1017.0 hPa 0.0 l/m 3.2 km/h (1 Bft) O-SO 0.00 h 85 W/m 5.2 C 13.7 C 5.9 km/h (2 Bft)
30.04.2009 19:00 13.3 C 59 % 1017.2 hPa 0.0 l/m 1.3 km/h (1 Bft) O 0.00 h 29 W/m 5.4 C 13.3 C 3.1 km/h (1 Bft)
30.04.2009 20:00 12.6 C 63 % 1017.5 hPa 0.0 l/m 0.3 km/h (0 Bft) O-SO 0.00 h 7 W/m 5.8 C 12.6 C 1.2 km/h (1 Bft)
30.04.2009 21:00 11.9 C 67 % 1017.8 hPa 0.0 l/m 0.2 km/h (0 Bft) O-SO 0.00 h 0 W/m 6.0 C 11.9 C 0.7 km/h (0 Bft)
30.04.2009 22:00 11.4 C 69 % 1017.9 hPa 0.0 l/m 1.0 km/h (0 Bft) O-SO 0.00 h 0 W/m 5.8 C 11.4 C 2.1 km/h (1 Bft)
30.04.2009 23:00 9.8 C 74 % 1018.5 hPa 0.0 l/m 1.3 km/h (1 Bft) O-SO 0.00 h 0 W/m 5.5 C 9.8 C 2.3 km/h (1 Bft)
01.05.2009 00:00 8.5 C 77 % 1018.6 hPa 0.0 l/m 1.1 km/h (1 Bft) O-SO 0.00 h 0 W/m 4.7 C 8.5 C 1.9 km/h (1 Bft)
01.05.2009 01:00 7.5 C 83 % 1019.0 hPa 0.0 l/m 0.0 km/h (0 Bft) O-SO 0.00 h 0 W/m 4.8 C 7.5 C 0.3 km/h (0 Bft)
01.05.2009 02:00 6.4 C 86 % 1018.8 hPa 0.0 l/m 1.4 km/h (1 Bft) O-SO 0.00 h 0 W/m 4.3 C 6.4 C 2.5 km/h (1 Bft)
01.05.2009 03:00 5.6 C 88 % 1018.4 hPa 0.0 l/m 2.0 km/h (1 Bft) O-SO 0.00 h 0 W/m 3.8 C 5.5 C 3.2 km/h (1 Bft)
01.05.2009 04:00 4.7 C 91 % 1018.6 hPa 0.0 l/m 0.8 km/h (0 Bft) O-SO 0.00 h 0 W/m 3.2 C 4.7 C 1.8 km/h (1 Bft)
01.05.2009 05:00 4.2 C 92 % 1019.1 hPa 0.0 l/m 0.1 km/h (0 Bft) O-SO 0.00 h 0 W/m 3.1 C 4.2 C 0.9 km/h (0 Bft)
01.05.2009 06:00 3.7 C 93 % 1019.6 hPa 0.0 l/m 0.2 km/h (0 Bft) O-SO 0.02 h 17 W/m 2.7 C 3.7 C 0.7 km/h (0 Bft)
01.05.2009 07:00 4.0 C 95 % 1020.2 hPa 0.0 l/m 0.1 km/h (0 Bft) O-SO 0.37 h 94 W/m 3.3 C 4.0 C 0.3 km/h (0 Bft)
01.05.2009 08:00 7.7 C 94 % 1020.3 hPa 0.0 l/m 0.0 km/h (0 Bft) N 1.00 h 264 W/m 6.8 C 7.7 C 0.3 km/h (0 Bft)
01.05.2009 09:00 12.0 C 77 % 1020.3 hPa 0.0 l/m 0.7 km/h (0 Bft) O-SO 1.00 h 430 W/m 8.0 C 12.0 C 2.2 km/h (1 Bft)
01.05.2009 10:00 14.0 C 67 % 1020.4 hPa 0.0 l/m 2.2 km/h (1 Bft) O-SO 1.00 h 594 W/m 7.9 C 14.0 C 5.0 km/h (1 Bft)
01.05.2009 11:00 15.6 C 59 % 1020.5 hPa 0.0 l/m 4.1 km/h (1 Bft) O-SO 1.00 h 726 W/m 7.7 C 15.6 C 7.7 km/h (2 Bft)
01.05.2009 12:00 16.8 C 57 % 1020.4 hPa 0.0 l/m 4.8 km/h (1 Bft) SO 1.00 h 843 W/m 8.1 C 16.8 C 9.2 km/h (2 Bft)
01.05.2009 13:00 18.6 C 53 % 1020.0 hPa 0.0 l/m 3.6 km/h (1 Bft) O-SO 0.68 h 702 W/m 8.7 C 18.6 C 6.8 km/h (2 Bft)
01.05.2009 14:00 18.7 C 52 % 1020.2 hPa 0.0 l/m 2.1 km/h (1 Bft) N-NO 0.57 h 618 W/m 8.6 C 18.7 C 4.3 km/h (1 Bft)
01.05.2009 15:00 19.6 C 51 % 1020.0 hPa 0.0 l/m 3.9 km/h (1 Bft) O-SO 0.70 h 606 W/m 9.1 C 19.6 C 7.0 km/h (2 Bft)
01.05.2009 16:00 19.9 C 49 % 1020.0 hPa 0.0 l/m 1.5 km/h (1 Bft) S-SO 0.52 h 440 W/m 8.9 C 19.9 C 3.6 km/h (1 Bft)
01.05.2009 17:00 18.8 C 51 % 1020.4 hPa 0.0 l/m 5.7 km/h (1 Bft) W-NW 0.00 h 88 W/m 8.5 C 18.8 C 9.1 km/h (2 Bft)
01.05.2009 18:00 18.2 C 58 % 1020.7 hPa 0.0 l/m 2.8 km/h (1 Bft) W-NW 0.33 h 159 W/m 9.8 C 18.2 C 5.0 km/h (1 Bft)
01.05.2009 19:00 17.1 C 67 % 1021.0 hPa 0.8 l/m 4.0 km/h (1 Bft) O-SO 0.00 h 11 W/m 10.8 C 17.1 C 6.5 km/h (2 Bft)
01.05.2009 20:00 14.2 C 84 % 1021.8 hPa 0.0 l/m 1.3 km/h (1 Bft) O-SO 0.00 h 8 W/m 11.6 C 14.2 C 2.3 km/h (1 Bft)
01.05.2009 21:00 12.8 C 89 % 1022.6 hPa 0.0 l/m 3.8 km/h (1 Bft) O-SO 0.00 h 0 W/m 11.1 C 12.8 C 5.6 km/h (1 Bft)
01.05.2009 22:00 12.4 C 91 % 1022.9 hPa 0.0 l/m 1.7 km/h (1 Bft) O-SO 0.00 h 0 W/m 11.1 C 12.4 C 3.2 km/h (1 Bft)
01.05.2009 23:00 12.3 C 93 % 1023.1 hPa 0.6 l/m 2.5 km/h (1 Bft) O-SO 0.00 h 0 W/m 11.3 C 12.3 C 4.1 km/h (1 Bft)
02.05.2009 00:00 12.1 C 94 % 1023.3 hPa 0.0 l/m 0.6 km/h (0 Bft) O-SO 0.00 h 0 W/m 11.2 C 12.1 C 1.1 km/h (1 Bft)
02.05.2009 01:00 11.8 C 96 % 1023.6 hPa 0.0 l/m 0.1 km/h (0 Bft) O-SO 0.00 h 0 W/m 11.1 C 11.8 C 0.3 km/h (0 Bft)
02.05.2009 02:00 11.5 C 96 % 1023.7 hPa 0.0 l/m 0.6 km/h (0 Bft) O-SO 0.00 h 0 W/m 10.9 C 11.5 C 1.1 km/h (1 Bft)
02.05.2009 03:00 11.2 C 97 % 1023.7 hPa 1.0 l/m 1.2 km/h (1 Bft) O-SO 0.00 h 0 W/m 10.8 C 11.2 C 2.5 km/h (1 Bft)
02.05.2009 04:00 11.4 C 98 % 1023.8 hPa 1.2 l/m 0.8 km/h (0 Bft) O 0.00 h 0 W/m 11.0 C 11.4 C 1.9 km/h (1 Bft)
02.05.2009 05:00 11.1 C 98 % 1024.4 hPa 0.0 l/m 1.8 km/h (1 Bft) O-SO 0.00 h 0 W/m 10.8 C 11.1 C 2.8 km/h (1 Bft)
02.05.2009 06:00 10.7 C 98 % 1024.6 hPa 0.0 l/m 0.5 km/h (0 Bft) N-NO 0.00 h 11 W/m 10.4 C 10.7 C 1.3 km/h (1 Bft)
02.05.2009 07:00 11.0 C 99 % 1025.2 hPa 0.0 l/m 0.6 km/h (0 Bft) NW 0.00 h 57 W/m 10.9 C 11.0 C 1.4 km/h (1 Bft)
02.05.2009 08:00 11.6 C 99 % 1025.7 hPa 0.0 l/m 0.4 km/h (0 Bft) S-SO 0.03 h 132 W/m 11.5 C 11.6 C 1.8 km/h (1 Bft)
02.05.2009 09:00 13.1 C 99 % 1026.1 hPa 0.0 l/m 0.6 km/h (0 Bft) S-SW 0.15 h 242 W/m 12.9 C 13.1 C 2.4 km/h (1 Bft)
02.05.2009 10:00 14.5 C 95 % 1026.1 hPa 0.2 l/m 1.9 km/h (1 Bft) SW 0.68 h 440 W/m 13.6 C 14.5 C 4.5 km/h (1 Bft)
02.05.2009 11:00 16.5 C 83 % 1026.1 hPa 0.0 l/m 2.6 km/h (1 Bft) W 0.75 h 641 W/m 13.6 C 16.5 C 6.0 km/h (2 Bft)
02.05.2009 12:00 17.7 C 75 % 1025.9 hPa 0.0 l/m 3.9 km/h (1 Bft) W 0.77 h 688 W/m 13.2 C 17.7 C 6.6 km/h (2 Bft)
02.05.2009 13:00 17.3 C 73 % 1025.5 hPa 0.0 l/m 5.2 km/h (1 Bft) W-NW 0.22 h 391 W/m 12.5 C 17.3 C 8.7 km/h (2 Bft)
02.05.2009 14:00 15.6 C 75 % 1026.0 hPa 6.8 l/m 7.2 km/h (2 Bft) N-NW 0.00 h 63 W/m 11.3 C 15.6 C 11.8 km/h (2 Bft)
02.05.2009 15:00 13.2 C 88 % 1026.3 hPa 0.2 l/m 2.0 km/h (1 Bft) O-NO 0.00 h 145 W/m 11.2 C 13.2 C 3.7 km/h (1 Bft)
02.05.2009 16:00 13.3 C 91 % 1026.0 hPa 0.0 l/m 1.7 km/h (1 Bft) S-SO 0.17 h 212 W/m 11.9 C 13.3 C 3.9 km/h (1 Bft)
02.05.2009 17:00 14.4 C 89 % 1025.7 hPa 0.2 l/m 0.9 km/h (0 Bft) SO 0.00 h 153 W/m 12.5 C 14.4 C 2.5 km/h (1 Bft)
02.05.2009 18:00 15.1 C 89 % 1025.5 hPa 0.0 l/m 1.8 km/h (1 Bft) W 0.32 h 180 W/m 13.3 C 15.1 C 3.8 km/h (1 Bft)
02.05.2009 19:00 14.5 C 89 % 1025.6 hPa 0.4 l/m 0.8 km/h (0 Bft) SO 0.00 h 26 W/m 12.6 C 14.5 C 2.3 km/h (1 Bft)
02.05.2009 20:00 13.7 C 90 % 1026.0 hPa 0.0 l/m 0.3 km/h (0 Bft) SO 0.00 h 5 W/m 12.1 C 13.7 C 1.6 km/h (1 Bft)
02.05.2009 21:00 12.9 C 92 % 1026.6 hPa 0.0 l/m 2.3 km/h (1 Bft) O-SO 0.00 h 0 W/m 11.6 C 12.9 C 3.9 km/h (1 Bft)
02.05.2009 22:00 12.5 C 94 % 1026.8 hPa 0.2 l/m 0.5 km/h (0 Bft) N-NW 0.00 h 0 W/m 11.5 C 12.5 C 1.7 km/h (1 Bft)
02.05.2009 23:00 12.2 C 95 % 1026.4 hPa 0.0 l/m 1.2 km/h (1 Bft) N-NW 0.00 h 0 W/m 11.5 C 12.2 C 2.7 km/h (1 Bft)
03.05.2009 00:00 11.6 C 96 % 1026.1 hPa 0.0 l/m 3.7 km/h (1 Bft) O-SO 0.00 h 0 W/m 11.0 C 11.6 C 5.8 km/h (2 Bft)
03.05.2009 01:00 10.9 C 97 % 1025.9 hPa 0.2 l/m 0.6 km/h (0 Bft) O 0.00 h 0 W/m 10.4 C 10.9 C 1.3 km/h (1 Bft)
03.05.2009 02:00 10.2 C 97 % 1025.6 hPa 0.0 l/m 3.4 km/h (1 Bft) O 0.00 h 0 W/m 9.7 C 10.1 C 4.4 km/h (1 Bft)
03.05.2009 03:00 9.6 C 97 % 1025.4 hPa 0.0 l/m 3.7 km/h (1 Bft) O-SO 0.00 h 0 W/m 9.3 C 9.4 C 5.3 km/h (1 Bft)
03.05.2009 04:00 9.7 C 98 % 1025.3 hPa 0.0 l/m 1.2 km/h (1 Bft) O-SO 0.00 h 0 W/m 9.4 C 9.7 C 2.0 km/h (1 Bft)
03.05.2009 05:00 9.8 C 98 % 1024.8 hPa 0.0 l/m 1.8 km/h (1 Bft) O-SO 0.00 h 0 W/m 9.5 C 9.8 C 3.3 km/h (1 Bft)
03.05.2009 06:00 9.5 C 99 % 1024.7 hPa 0.0 l/m 1.6 km/h (1 Bft) O 0.00 h 13 W/m 9.3 C 9.5 C 3.2 km/h (1 Bft)
03.05.2009 07:00 9.4 C 99 % 1025.0 hPa 0.0 l/m 1.3 km/h (1 Bft) O-SO 0.00 h 43 W/m 9.2 C 9.4 C 2.9 km/h (1 Bft)
03.05.2009 08:00 9.4 C 99 % 1025.0 hPa 0.0 l/m 1.4 km/h (1 Bft) O-SO 0.00 h 106 W/m 9.3 C 9.4 C 3.0 km/h (1 Bft)
03.05.2009 09:00 10.0 C 99 % 1024.9 hPa 0.0 l/m 0.4 km/h (0 Bft) SO 0.00 h 173 W/m 9.8 C 10.0 C 1.3 km/h (1 Bft)
03.05.2009 10:00 11.4 C 99 % 1024.7 hPa 0.0 l/m 1.2 km/h (1 Bft) N 0.05 h 311 W/m 11.2 C 11.4 C 3.0 km/h (1 Bft)
03.05.2009 11:00 13.1 C 91 % 1024.3 hPa 0.0 l/m 1.6 km/h (1 Bft) NW 0.70 h 612 W/m 11.6 C 13.1 C 3.5 km/h (1 Bft)
03.05.2009 12:00 15.0 C 81 % 1023.3 hPa 0.0 l/m 3.4 km/h (1 Bft) W-NW 1.00 h 813 W/m 11.9 C 15.0 C 5.6 km/h (1 Bft)
03.05.2009 13:00 17.6 C 72 % 1022.3 hPa 0.0 l/m 4.0 km/h (1 Bft) N-NW 1.00 h 841 W/m 12.4 C 17.6 C 6.6 km/h (2 Bft)
03.05.2009 14:00 19.6 C 54 % 1021.6 hPa 0.0 l/m 2.9 km/h (1 Bft) N 1.00 h 852 W/m 10.1 C 19.6 C 5.4 km/h (1 Bft)
03.05.2009 15:00 19.7 C 45 % 1021.2 hPa 0.0 l/m 6.7 km/h (2 Bft) N-NW 0.27 h 369 W/m 7.4 C 19.7 C 10.6 km/h (2 Bft)
03.05.2009 16:00 18.4 C 52 % 1020.8 hPa 0.0 l/m 6.3 km/h (2 Bft) N-NW 0.30 h 308 W/m 8.4 C 18.4 C 10.5 km/h (2 Bft)
03.05.2009 17:00 19.5 C 48 % 1020.3 hPa 0.0 l/m 1.6 km/h (1 Bft) N 0.80 h 377 W/m 8.3 C 19.5 C 3.6 km/h (1 Bft)
03.05.2009 18:00 18.6 C 51 % 1020.3 hPa 0.0 l/m 6.4 km/h (2 Bft) W-NW 0.00 h 152 W/m 8.3 C 18.6 C 10.2 km/h (2 Bft)
03.05.2009 19:00 17.1 C 59 % 1020.5 hPa 0.0 l/m 2.8 km/h (1 Bft) W-NW 0.00 h 51 W/m 9.0 C 17.1 C 5.4 km/h (1 Bft)
03.05.2009 20:00 16.1 C 66 % 1021.1 hPa 0.0 l/m 0.9 km/h (0 Bft) W-SW 0.03 h 17 W/m 9.7 C 16.1 C 2.4 km/h (1 Bft)
03.05.2009 21:00 15.2 C 70 % 1021.8 hPa 0.0 l/m 3.9 km/h (1 Bft) S-SO 0.00 h 0 W/m 9.6 C 15.2 C 7.1 km/h (2 Bft)
03.05.2009 22:00 14.0 C 72 % 1022.3 hPa 0.0 l/m 4.3 km/h (1 Bft) O-SO 0.00 h 0 W/m 9.1 C 14.0 C 7.2 km/h (2 Bft)
03.05.2009 23:00 12.1 C 83 % 1022.6 hPa 1.8 l/m 3.0 km/h (1 Bft) O 0.00 h 0 W/m 9.4 C 12.1 C 5.6 km/h (1 Bft)
Min-Datum _ 01.05.09 03.05.09 28.04.09 - 27.04.09 - - - 29.04.09 30.04.09 27.04.09
_ Min-Zeit 07:00 15:17 02:45 - 00:02 - - - 16:10 05:18 00:05
Minimum _ 3.4 C 34 % 1001.4 hPa - 0.0 km/h (0 Bft) - - - 2.5 C 3.2 C 0.0 km/h (0 Bft)
Max-Datum _ 03.05.09 02.05.09 02.05.09 02.05.09 28.04.09 - 27.04.09 01.05.09 02.05.09 03.05.09 28.04.09
_ Max-Zeit 14:48 09:05 22:00 14:45 11:43 - 12:14 13:33 11:43 14:48 11:20
Maximum _ 20.7 C 100 % 1026.9 hPa 6.8 l/m 29.5 km/h
W (5 Bft)
- 0.02 h 1063 W/m 14.7 C 20.7 C 40.0 km/h
W (6 Bft)
Durchschnitt _ 11.2 C 80 % 1015.1 hPa #16.2 l/m 2.9 km/h (1 Bft) O-SO #23:27 h 239 W/m 7.6 C 11.2 C 5.2 km/h (1 Bft)
© Kaiko 2009